createdAt,value
2022-08-07T00:00:36.658Z,100464.69
2022-08-07T00:03:07.211Z,100469.31
2022-08-07T00:05:36.166Z,100473.31
2022-08-07T00:08:04.986Z,100469.97
2022-08-07T00:10:34.617Z,100470.59
2022-08-07T00:13:17.471Z,100471.06
2022-08-07T00:15:51.584Z,100462.28
2022-08-07T00:18:24.642Z,100472.34
2022-08-07T00:20:55.243Z,100466.88
2022-08-07T00:23:23.440Z,100471.50
2022-08-07T00:25:58.166Z,100465.13
2022-08-07T00:28:33.723Z,100461.19
2022-08-07T00:31:12.354Z,100465.78
2022-08-07T00:33:42.988Z,100462.47
2022-08-07T00:36:14.168Z,100462.91
2022-08-07T00:38:40.873Z,100469.00
2022-08-07T00:41:09.920Z,100469.44
2022-08-07T00:43:59.829Z,100469.88
2022-08-07T00:46:27.771Z,100461.03
2022-08-07T00:48:54.315Z,100463.13
2022-08-07T00:51:21.232Z,100465.88
2022-08-07T00:53:55.339Z,100461.44
2022-08-07T00:56:23.394Z,100457.66
2022-08-07T00:58:57.579Z,100462.69
2022-08-07T01:01:24.530Z,100458.06
2022-08-07T01:03:57.201Z,100456.81
2022-08-07T01:06:28.979Z,100451.13
2022-08-07T01:08:59.364Z,100447.53
2022-08-07T01:12:09.585Z,100449.25
2022-08-07T01:14:16.822Z,100452.00
2022-08-07T01:16:47.250Z,100458.09
2022-08-07T01:19:19.212Z,100468.81
2022-08-07T01:21:49.202Z,100456.56
2022-08-07T01:24:21.223Z,100463.06
2022-08-07T01:26:51.967Z,100448.09
2022-08-07T01:29:20.564Z,100455.25
2022-08-07T01:31:49.596Z,100455.03
2022-08-07T01:34:18.732Z,100458.84
2022-08-07T01:36:52.598Z,100453.81
2022-08-07T01:39:41.445Z,100454.03
2022-08-07T01:42:38.473Z,100454.25
2022-08-07T01:45:10.100Z,100447.53
2022-08-07T01:48:29.335Z,100455.13
2022-08-07T01:50:32.167Z,100449.66
2022-08-07T01:53:01.758Z,100453.44
2022-08-07T01:55:39.998Z,100451.31
2022-08-07T01:58:27.359Z,100460.38
2022-08-07T02:01:09.828Z,100457.63
2022-08-07T02:03:51.976Z,100465.84
2022-08-07T02:06:31.706Z,100455.31
2022-08-07T02:09:03.633Z,100461.41
2022-08-07T02:12:03.236Z,100466.25
2022-08-07T02:14:40.908Z,100467.69
2022-08-07T02:17:10.884Z,100467.44
2022-08-07T02:20:04.550Z,100473.97
2022-08-07T02:22:28.578Z,100463.41
2022-08-07T02:24:57.947Z,100473.53
2022-08-07T02:27:26.370Z,100468.28
2022-08-07T02:30:04.042Z,100468.91
2022-08-07T02:32:38.683Z,100478.38
2022-08-07T02:35:10.836Z,100484.91
2022-08-07T02:37:44.154Z,100481.94
2022-08-07T02:40:34.916Z,100487.59
2022-08-07T02:42:59.181Z,100486.97
2022-08-07T02:45:58.292Z,100486.53
2022-08-07T02:48:15.702Z,100479.81
2022-08-07T02:50:44.933Z,100479.81
2022-08-07T02:53:18.031Z,100486.97
2022-08-07T02:56:04.287Z,100487.03
2022-08-07T02:58:34.011Z,100487.50
2022-08-07T03:01:03.110Z,100489.84
2022-08-07T03:03:42.101Z,100487.69
2022-08-07T03:06:25.994Z,100486.78
2022-08-07T03:09:01.852Z,100488.25
2022-08-07T03:11:29.467Z,100480.03
2022-08-07T03:14:01.767Z,100486.53
2022-08-07T03:16:32.447Z,100484.66
2022-08-07T03:19:00.098Z,100482.78
2022-08-07T03:21:28.316Z,100479.00
2022-08-07T03:24:20.820Z,100488.03
2022-08-07T03:26:58.479Z,100485.97
2022-08-07T03:29:33.915Z,100483.66
2022-08-07T03:32:07.086Z,100486.38
2022-08-07T03:34:47.163Z,100488.72
2022-08-07T03:37:32.614Z,100492.69
2022-08-07T03:40:15.615Z,100491.88
2022-08-07T03:42:43.822Z,100488.94
2022-08-07T03:45:11.552Z,100485.53
2022-08-07T03:47:47.749Z,100491.00
2022-08-07T03:50:23.154Z,100483.84
2022-08-07T03:52:52.289Z,100488.72
2022-08-07T03:55:19.080Z,100499.28
2022-08-07T03:58:34.144Z,100502.41
2022-08-07T04:00:36.830Z,100505.41
2022-08-07T04:03:04.818Z,100512.78
2022-08-07T04:05:39.389Z,100520.84
2022-08-07T04:08:15.911Z,100517.28
2022-08-07T04:10:53.893Z,100521.59
2022-08-07T04:14:11.008Z,100530.06
2022-08-07T04:16:31.325Z,100535.16
2022-08-07T04:19:12.623Z,100538.13
2022-08-07T04:21:58.841Z,100528.44
2022-08-07T04:24:33.781Z,100539.44
2022-08-07T04:27:03.026Z,100541.56
2022-08-07T04:29:58.205Z,100530.19
2022-08-07T04:32:18.206Z,100542.22
2022-08-07T04:34:56.180Z,100547.03
2022-08-07T04:37:22.854Z,100550.63
2022-08-07T04:39:50.743Z,100542.81
2022-08-07T04:42:17.432Z,100545.13
2022-08-07T04:45:02.598Z,100545.56
2022-08-07T04:48:00.915Z,100541.56
2022-08-07T04:50:28.312Z,100546.41
2022-08-07T04:53:07.138Z,100548.75
2022-08-07T04:58:09.898Z,100548.72
2022-08-07T04:59:17.095Z,100548.72
2022-08-07T05:02:05.768Z,100552.31
2022-08-07T05:04:53.718Z,100552.50
2022-08-07T05:07:30.417Z,100562.44
2022-08-07T05:10:28.428Z,100557.16
2022-08-07T05:14:44.943Z,100552.72
2022-08-07T05:15:53.550Z,100563.28
2022-08-07T05:18:25.635Z,100570.88
2022-08-07T05:20:56.580Z,100561.19
2022-08-07T05:23:44.667Z,100567.50
2022-08-07T05:26:23.932Z,100567.72
2022-08-07T05:28:53.682Z,100571.31
2022-08-07T05:31:35.319Z,100569.41
2022-08-07T05:34:10.786Z,100573.63
2022-08-07T05:36:40.699Z,100583.09
2022-08-07T05:40:05.321Z,100586.09
2022-08-07T05:42:02.584Z,100586.50
2022-08-07T05:44:33.671Z,100586.50
2022-08-07T05:47:01.704Z,100586.28
2022-08-07T05:49:48.026Z,100590.09
2022-08-07T05:52:14.580Z,100582.03
2022-08-07T05:54:55.578Z,100586.50
2022-08-07T05:57:26.755Z,100584.78
2022-08-07T06:00:01.185Z,100581.63
2022-08-07T06:02:33.084Z,100581.00
2022-08-07T06:05:05.947Z,100580.78
2022-08-07T06:08:13.437Z,100573.81
2022-08-07T06:10:21.721Z,100585.84
2022-08-07T06:12:49.645Z,100589.44
2022-08-07T06:15:20.010Z,100582.03
2022-08-07T06:17:53.935Z,100591.16
2022-08-07T06:20:31.825Z,100597.06
2022-08-07T06:23:46.869Z,100604.88
2022-08-07T06:25:59.724Z,100605.72
2022-08-07T06:28:27.905Z,100605.94
2022-08-07T06:30:55.676Z,100616.91
2022-08-07T06:33:22.916Z,100612.88
2022-08-07T06:36:06.505Z,100606.97
2022-08-07T06:38:36.732Z,100617.31
2022-08-07T06:41:12.895Z,100616.47
2022-08-07T06:43:46.156Z,100625.75
2022-08-07T06:46:15.334Z,100631.66
2022-08-07T06:48:58.278Z,100622.38
2022-08-07T06:51:33.180Z,100627.44
2022-08-07T06:55:31.345Z,100630.16
2022-08-07T06:56:54.491Z,100618.97
2022-08-07T07:00:12.289Z,100623.59
2022-08-07T07:02:48.656Z,100617.03
2022-08-07T07:05:08.914Z,100618.94
2022-08-07T07:08:00.170Z,100614.25
2022-08-07T07:10:33.495Z,100614.47
2022-08-07T07:13:13.171Z,100620.59
2022-08-07T07:15:51.772Z,100619.53
2022-08-07T07:19:00.254Z,100616.78
2022-08-07T07:22:05.027Z,100627.75
2022-08-07T07:24:29.343Z,100618.69
2022-08-07T07:27:00.949Z,100624.38
2022-08-07T07:29:56.491Z,100622.09
2022-08-07T07:32:23.105Z,100621.84
2022-08-07T07:34:55.827Z,100610.44
2022-08-07T07:37:49.414Z,100620.16
2022-08-07T07:40:19.674Z,100609.81
2022-08-07T07:42:53.965Z,100614.03
2022-08-07T07:45:24.603Z,100614.03
2022-08-07T07:48:12.923Z,100608.53
2022-08-07T07:51:02.018Z,100619.50
2022-08-07T07:53:30.462Z,100623.69
2022-08-07T07:56:02.004Z,100611.47
2022-08-07T07:58:40.183Z,100617.56
2022-08-07T08:02:03.206Z,100618.16
2022-08-07T08:04:09.324Z,100618.75
2022-08-07T08:06:39.572Z,100621.09
2022-08-07T08:09:08.578Z,100620.59
2022-08-07T08:11:59.492Z,100622.69
2022-08-07T08:14:26.649Z,100626.19
2022-08-07T08:16:56.324Z,100630.81
2022-08-07T08:20:19.531Z,100621.88
2022-08-07T08:22:54.342Z,100618.25
2022-08-07T08:25:43.048Z,100623.47
2022-08-07T08:28:24.156Z,100626.00
2022-08-07T08:31:15.901Z,100625.31
2022-08-07T08:33:49.036Z,100625.50
2022-08-07T08:36:18.148Z,100624.59
2022-08-07T08:38:55.978Z,100628.81
2022-08-07T08:41:31.489Z,100624.59
2022-08-07T08:44:40.895Z,100627.13
2022-08-07T08:47:13.783Z,100621.56
2022-08-07T08:50:06.133Z,100621.97
2022-08-07T08:52:51.548Z,100632.69
2022-08-07T08:55:55.238Z,100629.50
2022-08-07T08:58:50.602Z,100622.81
2022-08-07T09:01:29.758Z,100624.91
2022-08-07T09:04:28.822Z,100628.47
2022-08-07T09:07:29.331Z,100618.25
2022-08-07T09:10:36.135Z,100624.44
2022-08-07T09:13:14.679Z,100625.06
2022-08-07T09:16:23.931Z,100623.28
2022-08-07T09:19:51.134Z,100627.03
2022-08-07T09:24:33.365Z,100630.50
2022-08-07T09:25:35.547Z,100624.59
2022-08-07T09:30:03.263Z,100622.72
2022-08-07T09:31:22.699Z,100613.78
2022-08-07T09:33:58.939Z,100616.91
2022-08-07T09:36:37.315Z,100621.66
2022-08-07T09:39:53.205Z,100613.41
2022-08-07T09:42:23.072Z,100617.88
2022-08-07T09:47:23.773Z,100614.91
2022-08-07T09:48:11.704Z,100615.09
2022-08-07T09:52:15.955Z,100602.78
2022-08-07T09:54:08.238Z,100602.84
2022-08-07T09:56:42.791Z,100594.94
2022-08-07T10:00:01.423Z,100597.91
2022-08-07T10:02:40.400Z,100594.06
2022-08-07T10:05:59.749Z,100588.75
2022-08-07T10:09:07.213Z,100587.50
2022-08-07T10:12:00.032Z,100591.69
2022-08-07T10:14:33.546Z,100578.84
2022-08-07T10:17:14.151Z,100586.56
2022-08-07T10:19:58.108Z,100572.44
2022-08-07T10:22:59.290Z,100577.97
2022-08-07T10:25:42.216Z,100570.97
2022-08-07T10:28:18.748Z,100570.66
2022-08-07T10:31:06.087Z,100573.38
2022-08-07T10:34:06.676Z,100568.22
2022-08-07T10:36:58.453Z,100563.94
2022-08-07T10:40:02.735Z,100558.13
2022-08-07T10:42:47.286Z,100559.22
2022-08-07T10:45:57.838Z,100550.56
2022-08-07T10:48:41.067Z,100549.84
2022-08-07T10:52:02.292Z,100540.91
2022-08-07T10:54:35.460Z,100541.13
2022-08-07T10:57:01.968Z,100538.84
2022-08-07T10:59:52.218Z,100536.75
2022-08-07T11:02:53.649Z,100535.19
2022-08-07T11:05:49.159Z,100527.97
2022-08-07T11:08:18.408Z,100525.53
2022-08-07T11:11:02.962Z,100527.53
2022-08-07T11:14:43.940Z,100524.81
2022-08-07T11:16:38.955Z,100529.78
2022-08-07T11:19:14.103Z,100524.59
2022-08-07T11:22:32.238Z,100517.72
2022-08-07T11:25:25.674Z,100515.38
2022-08-07T11:28:16.577Z,100518.78
2022-08-07T11:31:08.584Z,100513.34
2022-08-07T11:34:04.193Z,100517.53
2022-08-07T11:36:37.584Z,100510.88
2022-08-07T11:39:19.853Z,100506.25
2022-08-07T11:42:18.559Z,100502.63
2022-08-07T11:44:52.799Z,100498.00
2022-08-07T11:48:18.089Z,100487.47
2022-08-07T11:51:40.874Z,100493.34
2022-08-07T11:54:33.297Z,100492.22
2022-08-07T11:57:57.729Z,100491.88
2022-08-07T12:01:00.188Z,100487.19
2022-08-07T12:04:17.352Z,100479.69
2022-08-07T12:06:57.213Z,100477.19
2022-08-07T12:09:42.546Z,100477.19
2022-08-07T12:12:28.784Z,100476.34
2022-08-07T12:15:03.192Z,100474.94
2022-08-07T12:17:59.217Z,100466.91
2022-08-07T12:20:38.061Z,100470.81
2022-08-07T12:23:37.120Z,100465.75
2022-08-07T12:26:30.053Z,100458.72
2022-08-07T12:29:07.541Z,100463.59
2022-08-07T12:32:04.951Z,100450.94
2022-08-07T12:34:38.805Z,100445.75
2022-08-07T12:37:16.851Z,100449.88
2022-08-07T12:39:51.777Z,100437.88
2022-08-07T12:42:28.026Z,100444.34
2022-08-07T12:44:58.609Z,100438.47
2022-08-07T12:47:40.635Z,100432.41
2022-08-07T12:50:33.835Z,100436.16
2022-08-07T12:53:17.697Z,100428.13
2022-08-07T12:56:03.935Z,100431.97
2022-08-07T12:58:39.631Z,100430.91
2022-08-07T13:01:09.023Z,100430.63
2022-08-07T13:03:54.904Z,100426.88
2022-08-07T13:06:54.205Z,100425.53
2022-08-07T13:10:37.493Z,100424.50
2022-08-07T13:12:51.901Z,100411.16
2022-08-07T13:15:35.896Z,100415.81
2022-08-07T13:18:28.284Z,100424.53
2022-08-07T13:21:37.356Z,100413.34
2022-08-07T13:24:18.495Z,100418.38
2022-08-07T13:27:22.446Z,100413.28
2022-08-07T13:29:56.869Z,100416.22
2022-08-07T13:32:45.615Z,100418.19
2022-08-07T13:36:00.467Z,100414.00
2022-08-07T13:38:41.927Z,100409.50
2022-08-07T13:41:31.137Z,100404.81
2022-08-07T13:44:01.797Z,100399.38
2022-08-07T13:46:37.645Z,100399.91
2022-08-07T13:50:34.652Z,100400.91
2022-08-07T13:52:04.851Z,100393.25
2022-08-07T13:54:49.604Z,100389.81
2022-08-07T13:57:38.191Z,100387.28
2022-08-07T14:00:06.760Z,100376.03
2022-08-07T14:02:49.500Z,100376.00
2022-08-07T14:05:23.525Z,100383.84
2022-08-07T14:08:00.990Z,100373.69
2022-08-07T14:10:41.976Z,100374.09
2022-08-07T14:13:16.075Z,100365.47
2022-08-07T14:15:50.680Z,100366.53
2022-08-07T14:18:40.242Z,100369.06
2022-08-07T14:22:00.469Z,100362.34
2022-08-07T14:24:08.963Z,100365.94
2022-08-07T14:26:51.306Z,100365.59
2022-08-07T14:30:06.548Z,100354.81
2022-08-07T14:32:12.637Z,100356.81
2022-08-07T14:34:46.434Z,100354.84
2022-08-07T14:37:17.352Z,100352.75
2022-08-07T14:43:55.924Z,100345.16
2022-08-07T14:45:25.530Z,100352.31
2022-08-07T14:48:19.868Z,100346.75
2022-08-07T14:51:00.103Z,100335.69
2022-08-07T14:54:03.574Z,100346.94
2022-08-07T14:56:29.815Z,100331.44
2022-08-07T14:59:02.101Z,100330.91
2022-08-07T15:01:42.641Z,100333.34
2022-08-07T15:04:11.653Z,100323.91
2022-08-07T15:06:40.681Z,100327.44
2022-08-07T15:12:10.418Z,100321.56
2022-08-07T15:15:09.187Z,100318.59
2022-08-07T15:17:56.148Z,100310.41
2022-08-07T15:20:32.406Z,100317.63
2022-08-07T15:23:20.208Z,100313.44
2022-08-07T15:25:54.161Z,100316.63
2022-08-07T15:34:02.728Z,100300.72
2022-08-07T15:37:02.792Z,100302.63
2022-08-07T15:39:22.415Z,100309.19
2022-08-07T15:42:45.116Z,100305.28
2022-08-07T15:44:52.296Z,100301.00
2022-08-07T15:47:21.843Z,100299.50
2022-08-07T15:51:01.208Z,100301.34
2022-08-07T15:53:05.452Z,100306.66
2022-08-07T15:55:53.826Z,100302.66
2022-08-07T15:58:23.663Z,100293.47
2022-08-07T16:01:00.033Z,100297.22
2022-08-07T16:03:47.453Z,100294.38
2022-08-07T16:06:38.358Z,100298.03
2022-08-07T16:09:41.173Z,100301.69
2022-08-07T16:12:37.834Z,100299.34
2022-08-07T16:15:55.751Z,100300.91
2022-08-07T16:18:49.465Z,100298.38
2022-08-07T16:22:03.552Z,100306.00
2022-08-07T16:24:52.633Z,100302.25
2022-08-07T16:27:40.311Z,100302.53
2022-08-07T16:30:30.836Z,100298.19
2022-08-07T16:34:01.404Z,100300.53
2022-08-07T16:36:20.885Z,100301.84
2022-08-07T16:39:33.482Z,100304.13
2022-08-07T16:42:30.676Z,100304.63
2022-08-07T16:46:40.968Z,100298.88
2022-08-07T16:49:10.427Z,100298.63
2022-08-07T16:52:49.288Z,100302.91
2022-08-07T16:55:08.456Z,100303.16
2022-08-07T16:58:03.994Z,100298.50
2022-08-07T17:00:40.815Z,100298.38
2022-08-07T17:03:17.537Z,100298.00
2022-08-07T17:06:30.137Z,100301.59
2022-08-07T17:10:05.165Z,100304.19
2022-08-07T17:12:34.476Z,100300.41
2022-08-07T17:15:15.764Z,100300.03
2022-08-07T17:17:48.389Z,100302.78
2022-08-07T17:20:41.864Z,100308.13
2022-08-07T17:23:32.350Z,100305.81
2022-08-07T17:26:24.344Z,100307.22
2022-08-07T17:28:57.899Z,100307.28
2022-08-07T17:31:44.384Z,100298.69
2022-08-07T17:35:40.033Z,100309.13
2022-08-07T17:38:05.005Z,100306.66
2022-08-07T17:40:34.277Z,100303.97
2022-08-07T17:43:18.020Z,100315.41
2022-08-07T17:45:54.838Z,100322.16
2022-08-07T17:48:30.620Z,100322.72
2022-08-07T17:51:21.606Z,100325.22
2022-08-07T17:54:29.787Z,100328.63
2022-08-07T17:57:18.702Z,100324.13
2022-08-07T17:59:52.294Z,100328.03
2022-08-07T18:02:32.661Z,100333.56
2022-08-07T18:05:21.968Z,100330.50
2022-08-07T18:08:10.027Z,100344.94
2022-08-07T18:12:06.990Z,100353.50
2022-08-07T18:13:49.591Z,100354.03
2022-08-07T18:16:31.194Z,100360.09
2022-08-07T18:21:10.406Z,100361.69
2022-08-07T18:22:26.424Z,100365.53
2022-08-07T18:25:24.163Z,100367.66
2022-08-07T18:28:34.341Z,100369.88
2022-08-07T18:31:18.646Z,100369.78
2022-08-07T18:34:03.900Z,100369.69
2022-08-07T18:36:43.599Z,100370.22
2022-08-07T18:40:05.152Z,100378.44
2022-08-07T18:42:54.899Z,100375.81
2022-08-07T18:45:44.209Z,100380.53
2022-08-07T18:50:19.055Z,100375.69
2022-08-07T18:52:51.758Z,100381.44
2022-08-07T18:55:43.365Z,100380.56
2022-08-07T18:58:37.111Z,100398.72
2022-08-07T19:02:17.300Z,100396.41
2022-08-07T19:04:32.135Z,100402.84
2022-08-07T19:07:16.395Z,100407.09
2022-08-07T19:10:14.835Z,100413.59
2022-08-07T19:12:59.431Z,100412.06
2022-08-07T19:16:05.959Z,100428.09
2022-08-07T19:18:55.028Z,100438.91
2022-08-07T19:21:47.980Z,100442.38
2022-08-07T19:24:30.516Z,100442.81
2022-08-07T19:28:57.982Z,100444.56
2022-08-07T19:30:57.666Z,100447.75
2022-08-07T19:32:46.228Z,100456.03
2022-08-07T19:35:25.330Z,100456.91
2022-08-07T19:37:59.875Z,100460.19
2022-08-07T19:40:34.578Z,100475.00
2022-08-07T19:43:10.807Z,100470.72
2022-08-07T19:46:07.889Z,100468.00
2022-08-07T19:48:42.751Z,100476.47
2022-08-07T19:51:19.444Z,100477.69
2022-08-07T19:54:30.988Z,100483.84
2022-08-07T19:58:00.368Z,100485.06
2022-08-07T19:59:41.553Z,100486.50
2022-08-07T20:02:29.230Z,100495.63
2022-08-07T20:04:58.020Z,100491.72
2022-08-07T20:07:47.794Z,100491.97
2022-08-07T20:10:36.939Z,100489.31
2022-08-07T20:13:22.484Z,100487.28
2022-08-07T20:15:50.025Z,100490.63
2022-08-07T20:18:20.181Z,100495.66
2022-08-07T20:20:59.972Z,100499.59
2022-08-07T20:23:41.559Z,100505.13
2022-08-07T20:26:11.050Z,100507.38
2022-08-07T20:28:39.953Z,100514.44
2022-08-07T20:31:21.452Z,100509.28
2022-08-07T20:33:56.707Z,100505.53
2022-08-07T20:36:27.236Z,100509.00
2022-08-07T20:39:00.241Z,100513.78
2022-08-07T20:41:38.436Z,100514.03
2022-08-07T20:44:12.516Z,100516.03
2022-08-07T20:46:44.639Z,100518.63
2022-08-07T20:49:58.480Z,100512.81
2022-08-07T20:52:07.836Z,100517.91
2022-08-07T20:54:41.631Z,100513.47
2022-08-07T20:57:12.833Z,100510.41
2022-08-07T21:00:06.432Z,100514.03
2022-08-07T21:02:54.372Z,100519.00
2022-08-07T21:05:42.651Z,100517.25
2022-08-07T21:08:16.518Z,100517.78
2022-08-07T21:10:49.450Z,100521.00
2022-08-07T21:13:24.532Z,100526.56
2022-08-07T21:16:09.200Z,100519.06
2022-08-07T21:18:41.134Z,100527.63
2022-08-07T21:21:09.085Z,100542.19
2022-08-07T21:23:58.637Z,100541.72
2022-08-07T21:26:45.374Z,100549.53
2022-08-07T21:29:21.327Z,100542.38
2022-08-07T21:32:48.778Z,100549.78
2022-08-07T21:35:34.639Z,100549.59
2022-08-07T21:38:13.277Z,100546.22
2022-08-07T21:41:10.916Z,100545.56
2022-08-07T21:44:14.683Z,100553.91
2022-08-07T21:47:12.128Z,100557.38
2022-08-07T21:50:01.416Z,100551.88
2022-08-07T21:52:44.456Z,100552.31
2022-08-07T21:55:27.987Z,100555.72
2022-08-07T21:58:30.023Z,100560.16
2022-08-07T22:02:06.153Z,100561.91
2022-08-07T22:04:51.376Z,100572.72
2022-08-07T22:07:48.625Z,100569.78
2022-08-07T22:10:17.638Z,100561.00
2022-08-07T22:12:45.232Z,100564.59
2022-08-07T22:16:39.209Z,100565.63
2022-08-07T22:18:07.248Z,100558.50
2022-08-07T22:20:44.336Z,100559.34
2022-08-07T22:23:13.762Z,100565.47
2022-08-07T22:25:51.982Z,100559.34
2022-08-07T22:28:37.427Z,100564.22
2022-08-07T22:31:55.968Z,100557.31
2022-08-07T22:34:08.327Z,100566.66
2022-08-07T22:36:47.618Z,100569.59
2022-08-07T22:39:52.700Z,100566.03
2022-08-07T22:42:25.621Z,100566.66
2022-08-07T22:44:59.103Z,100562.03
2022-08-07T22:47:44.909Z,100565.84
2022-08-07T22:50:29.093Z,100570.88
2022-08-07T22:53:26.816Z,100579.31
2022-08-07T22:56:09.176Z,100579.75
2022-08-07T22:58:49.422Z,100582.91
2022-08-07T23:01:50.828Z,100580.34
2022-08-07T23:04:30.154Z,100583.94
2022-08-07T23:07:41.742Z,100588.19
2022-08-07T23:10:37.600Z,100595.78
2022-08-07T23:13:49.091Z,100600.00
2022-08-07T23:16:54.629Z,100595.72
2022-08-07T23:19:51.695Z,100589.38
2022-08-07T23:22:49.345Z,100594.22
2022-08-07T23:25:57.829Z,100599.28
2022-08-07T23:28:56.535Z,100601.31
2022-08-07T23:32:48.851Z,100600.47
2022-08-07T23:35:05.295Z,100591.19
2022-08-07T23:38:01.633Z,100598.31
2022-08-07T23:40:34.175Z,100592.59
2022-08-07T23:43:37.717Z,100600.13
2022-08-07T23:46:27.265Z,100604.50
2022-08-07T23:49:15.825Z,100607.94
2022-08-07T23:52:58.692Z,100608.75
2022-08-07T23:54:55.228Z,100613.69
2022-08-07T23:57:42.935Z,100612.25
